Time;durP1;ratioP1;P1;durP2;ratioP2;P2;SDS_P1;SDS_P2;PMS_P1;PMS_P2;Temp;Humidity;BMP_temperature;BMP_pressure;BME280_temperature;BME280_humidity;BME280_pressure;Samples;Min_cycle;Max_cycle;Signal;HPM_P1;HPM_P2
2022/12/20 00:01:39;;;;;;;;;;;;;;;4.13;78.42;98763.63;4843141;29;19974;-65
2022/12/20 00:04:04;;;;;;;;;;;;;;;4.17;79.08;98767.81;4833897;29;19916;-65
2022/12/20 00:06:29;;;;;;;;;;;;;;;4.20;78.67;98762.53;4841868;29;19941;-66
2022/12/20 00:08:55;;;;;;;;;;;;;;;4.22;78.80;98750.31;4831096;29;20015;-65
2022/12/20 00:11:20;;;;;;;;;;;;;;;4.24;78.43;98745.94;4837754;29;19973;-65
2022/12/20 00:13:46;;;;;;;;;;;;;;;4.26;78.46;98756.25;4839850;29;19954;-66
2022/12/20 00:16:12;;;;;;;;;;;;;;;4.23;77.49;98751.16;4841720;29;19912;-66
2022/12/20 00:18:37;;;;;;;;;;;;;;;4.24;77.94;98742.50;4838895;29;19974;-65
2022/12/20 00:21:03;;;;;;;;;;;;;;;4.26;77.91;98751.91;4833640;29;19927;-65
2022/12/20 00:23:28;;;;;;;;;;;;;;;4.22;76.83;98773.69;4832321;29;19920;-65
2022/12/20 00:26:03;;;;;;;;;;;;;;;4.24;77.02;98768.47;4841442;29;19912;-66
2022/12/20 00:28:29;;;;;;;;;;;;;;;4.26;77.50;98764.88;4839361;29;20433;-65
2022/12/20 00:30:54;;;;;;;;;;;;;;;4.25;76.96;98763.19;4833974;29;19916;-66
2022/12/20 00:33:19;;;;;;;;;;;;;;;4.26;77.48;98761.44;4840817;29;19917;-65
2022/12/20 00:35:45;;;;;;;;;;;;;;;4.25;76.73;98751.97;4835532;29;19916;-65
2022/12/20 00:38:10;;;;;;;;;;;;;;;4.29;77.47;98751.81;4823330;29;19924;-65
2022/12/20 00:40:35;;;;;;;;;;;;;;;4.33;77.96;98754.28;4832609;29;19916;-65
2022/12/20 00:43:00;;;;;;;;;;;;;;;4.34;77.88;98764.66;4837585;29;19912;-65
2022/12/20 00:45:25;;;;;;;;;;;;;;;4.37;77.93;98761.94;4827785;29;19924;-65
2022/12/20 00:47:51;;;;;;;;;;;;;;;4.34;76.94;98764.66;4838855;29;19917;-65
2022/12/20 00:50:16;;;;;;;;;;;;;;;4.32;76.28;98774.22;4824973;29;19924;-66
2022/12/20 00:52:41;;;;;;;;;;;;;;;4.33;77.06;98780.25;4831709;29;19920;-66
2022/12/20 00:55:06;;;;;;;;;;;;;;;4.34;76.92;98767.25;4839883;29;19916;-66
2022/12/20 00:57:32;;;;;;;;;;;;;;;4.39;77.58;98769.66;4841224;29;19928;-66
2022/12/20 00:59:57;;;;;;;;;;;;;;;4.42;78.14;98753.97;4823674;29;20422;-66
2022/12/20 01:02:22;;;;;;;;;;;;;;;4.45;77.86;98749.53;4834271;29;19928;-65
2022/12/20 01:04:48;;;;;;;;;;;;;;;4.46;77.25;98729.59;4840782;29;19916;-65
2022/12/20 01:07:13;;;;;;;;;;;;;;;4.46;77.19;98730.44;4835076;29;19931;-66
2022/12/20 01:09:38;;;;;;;;;;;;;;;4.47;77.09;98747.75;4848928;29;19916;-65
2022/12/20 01:12:03;;;;;;;;;;;;;;;4.44;75.83;98753.03;4841377;29;19960;-66
2022/12/20 01:14:29;;;;;;;;;;;;;;;4.44;76.50;98747.84;4839093;29;19955;-66
2022/12/20 01:16:54;;;;;;;;;;;;;;;4.45;77.31;98736.53;4832400;29;19916;-65
2022/12/20 01:19:19;;;;;;;;;;;;;;;4.49;77.49;98739.88;4834199;29;19924;-66
2022/12/20 01:21:44;;;;;;;;;;;;;;;4.50;77.30;98726.81;4840213;29;20377;-66
2022/12/20 01:24:10;;;;;;;;;;;;;;;4.50;76.79;98720.78;4833718;29;20359;-66
2022/12/20 01:26:35;;;;;;;;;;;;;;;4.45;75.80;98718.34;4832854;29;19919;-65
2022/12/20 01:29:01;;;;;;;;;;;;;;;4.46;76.39;98737.38;4832524;29;19916;-65
2022/12/20 01:31:26;;;;;;;;;;;;;;;4.47;76.50;98742.53;4841039;29;19918;-65
2022/12/20 01:33:51;;;;;;;;;;;;;;;4.44;75.90;98739.19;4838217;29;19998;-65
2022/12/20 01:36:18;;;;;;;;;;;;;;;4.46;76.44;98735.63;4831719;29;19916;-66
2022/12/20 01:38:43;;;;;;;;;;;;;;;4.41;75.83;98734.13;4844179;29;19924;-65
2022/12/20 01:41:09;;;;;;;;;;;;;;;4.39;75.45;98743.69;4836230;29;19913;-66
2022/12/20 01:43:54;;;;;;;;;;;;;;;4.39;76.01;98741.09;4831214;29;19944;-65
2022/12/20 01:46:19;;;;;;;;;;;;;;;4.38;76.12;98734.22;4841409;29;20016;-65
2022/12/20 01:49:09;;;;;;;;;;;;;;;4.39;76.21;98741.94;4844116;29;20003;-66
2022/12/20 01:51:35;;;;;;;;;;;;;;;4.34;74.24;98751.66;4830844;29;19917;-65
2022/12/20 01:54:04;;;;;;;;;;;;;;;4.38;76.04;98747.22;4841264;29;19917;-65
2022/12/20 01:56:29;;;;;;;;;;;;;;;4.40;76.35;98754.03;4843608;29;19931;-65
2022/12/20 01:58:54;;;;;;;;;;;;;;;4.38;75.09;98762.78;4846875;29;19916;-65
2022/12/20 02:01:21;;;;;;;;;;;;;;;4.43;76.26;98740.94;4852870;29;19917;-65
2022/12/20 02:03:46;;;;;;;;;;;;;;;4.45;76.82;98736.53;4830705;29;19917;-65
2022/12/20 02:06:16;;;;;;;;;;;;;;;4.45;75.66;98722.72;4830164;29;19916;-65
2022/12/20 02:08:41;;;;;;;;;;;;;;;4.46;76.31;98719.19;4841451;29;19916;-65
2022/12/20 02:11:25;;;;;;;;;;;;;;;4.43;75.04;98708.91;4843655;29;19936;-65
2022/12/20 02:13:54;;;;;;;;;;;;;;;4.45;76.07;98717.50;4842168;29;20285;-65
2022/12/20 02:16:23;;;;;;;;;;;;;;;4.43;75.82;98719.31;4846024;29;19917;-66
2022/12/20 02:18:53;;;;;;;;;;;;;;;4.44;76.11;98721.00;4833016;29;19928;-65
2022/12/20 02:21:18;;;;;;;;;;;;;;;4.46;76.39;98716.59;4843663;29;20383;-65
2022/12/20 02:24:01;;;;;;;;;;;;;;;4.46;75.91;98717.44;4842902;29;19974;-65
2022/12/20 02:26:26;;;;;;;;;;;;;;;4.48;76.43;98692.28;4840225;29;19916;-65
2022/12/20 02:28:58;;;;;;;;;;;;;;;4.47;76.14;98675.00;4846122;29;20010;-65
2022/12/20 02:31:26;;;;;;;;;;;;;;;4.50;76.43;98661.03;4847864;29;20428;-65
2022/12/20 02:33:52;;;;;;;;;;;;;;;4.49;75.91;98655.00;4842508;29;20003;-65
2022/12/20 02:36:17;;;;;;;;;;;;;;;4.49;75.69;98657.59;4844956;29;20003;-65
2022/12/20 02:38:42;;;;;;;;;;;;;;;4.50;76.02;98654.09;4844058;29;20332;-66
2022/12/20 02:41:12;;;;;;;;;;;;;;;4.50;75.56;98659.28;4848945;29;19947;-65
2022/12/20 02:46:21;;;;;;;;;;;;;;;4.53;75.68;98653.97;4840001;29;19996;-65
2022/12/20 02:48:46;;;;;;;;;;;;;;;4.50;75.34;98656.69;4834382;29;19956;-65
2022/12/20 02:51:12;;;;;;;;;;;;;;;4.44;74.33;98672.53;4844702;29;20020;-65
2022/12/20 02:53:37;;;;;;;;;;;;;;;4.46;75.17;98667.25;4838415;29;19924;-65
2022/12/20 02:56:12;;;;;;;;;;;;;;;4.44;74.82;98669.91;4834843;29;19916;-65
2022/12/20 02:58:50;;;;;;;;;;;;;;;4.44;74.31;98664.72;4840643;29;19958;-66
2022/12/20 03:01:20;;;;;;;;;;;;;;;4.44;74.75;98661.25;4840636;29;19912;-65
2022/12/20 03:03:45;;;;;;;;;;;;;;;4.46;75.31;98665.50;4843060;29;20014;-65
2022/12/20 03:06:10;;;;;;;;;;;;;;;4.47;75.63;98667.22;4845318;29;20400;-65
2022/12/20 03:08:36;;;;;;;;;;;;;;;4.46;75.66;98668.09;4835379;29;20032;-65
2022/12/20 03:11:01;;;;;;;;;;;;;;;4.41;74.68;98664.84;4843473;29;20015;-66
2022/12/20 03:13:26;;;;;;;;;;;;;;;4.40;74.66;98662.28;4842454;29;19912;-65
2022/12/20 03:15:51;;;;;;;;;;;;;;;4.44;75.97;98651.75;4841430;29;19916;-65
2022/12/20 03:18:17;;;;;;;;;;;;;;;4.44;75.35;98643.94;4841419;29;19920;-65
2022/12/20 03:20:42;;;;;;;;;;;;;;;4.46;75.61;98649.91;4838564;29;19916;-64
2022/12/20 03:23:07;;;;;;;;;;;;;;;4.44;74.75;98654.34;4845683;29;19912;-66
2022/12/20 03:25:32;;;;;;;;;;;;;;;4.45;75.19;98675.97;4839594;29;20462;-65
2022/12/20 03:27:57;;;;;;;;;;;;;;;4.47;75.60;98676.72;4830942;29;20011;-65
2022/12/20 03:30:23;;;;;;;;;;;;;;;4.49;76.04;98661.94;4840785;29;19920;-65
2022/12/20 03:32:48;;;;;;;;;;;;;;;4.49;75.02;98661.94;4841094;29;20446;-65
2022/12/20 03:35:13;;;;;;;;;;;;;;;4.51;75.26;98668.78;4847491;29;19962;-65
2022/12/20 03:37:38;;;;;;;;;;;;;;;4.50;74.73;98659.28;4843389;29;19967;-65
2022/12/20 03:40:04;;;;;;;;;;;;;;;4.53;75.09;98664.38;4835855;29;19977;-65
2022/12/20 03:42:29;;;;;;;;;;;;;;;4.56;75.59;98678.16;4836560;29;19924;-66
2022/12/20 03:44:55;;;;;;;;;;;;;;;4.56;75.74;98668.63;4838200;29;19924;-65
2022/12/20 03:47:20;;;;;;;;;;;;;;;4.58;75.97;98676.38;4835905;29;19988;-65
2022/12/20 03:49:45;;;;;;;;;;;;;;;4.60;75.71;98670.19;4840215;29;19967;-65
2022/12/20 03:52:11;;;;;;;;;;;;;;;4.61;75.60;98655.44;4834307;29;19977;-65
2022/12/20 03:54:36;;;;;;;;;;;;;;;4.61;76.22;98655.44;4831237;29;19916;-65
2022/12/20 03:57:01;;;;;;;;;;;;;;;4.62;75.69;98660.59;4840549;29;19923;-65
2022/12/20 03:59:26;;;;;;;;;;;;;;;4.66;75.66;98661.31;4841878;29;19975;-65
2022/12/20 04:01:52;;;;;;;;;;;;;;;4.67;75.36;98655.22;4841623;29;19916;-65
2022/12/20 04:04:17;;;;;;;;;;;;;;;4.64;75.25;98644.94;4839735;29;19923;-65
2022/12/20 04:06:42;;;;;;;;;;;;;;;4.63;75.75;98645.84;4848775;29;19916;-65
2022/12/20 04:09:07;;;;;;;;;;;;;;;4.63;75.69;98638.06;4841169;29;19917;-65
2022/12/20 04:11:32;;;;;;;;;;;;;;;4.60;74.98;98627.78;4831707;29;19927;-65
2022/12/20 04:13:58;;;;;;;;;;;;;;;4.59;75.00;98636.47;4838607;29;19916;-65
2022/12/20 04:16:24;;;;;;;;;;;;;;;4.59;75.49;98646.88;4833446;29;19920;-65
2022/12/20 04:18:49;;;;;;;;;;;;;;;4.60;75.53;98639.00;4833352;29;19927;-65
2022/12/20 04:21:14;;;;;;;;;;;;;;;4.63;74.96;98638.06;4833506;29;19917;-65
2022/12/20 04:23:40;;;;;;;;;;;;;;;4.67;74.62;98639.63;4837732;29;19964;-65
2022/12/20 04:26:05;;;;;;;;;;;;;;;4.70;74.23;98634.31;4830563;29;20376;-65
2022/12/20 04:28:31;;;;;;;;;;;;;;;4.75;74.42;98632.41;4839885;29;20305;-65
2022/12/20 04:30:56;;;;;;;;;;;;;;;4.79;74.70;98628.78;4830975;29;19913;-65
2022/12/20 04:33:21;;;;;;;;;;;;;;;4.82;74.26;98626.06;4827962;29;19916;-65
2022/12/20 04:35:46;;;;;;;;;;;;;;;4.81;73.66;98632.16;4840585;29;19952;-65
2022/12/20 04:38:12;;;;;;;;;;;;;;;4.85;74.10;98635.47;4839795;29;19956;-65
2022/12/20 04:40:37;;;;;;;;;;;;;;;4.86;74.00;98630.22;4832345;29;19951;-66
2022/12/20 04:43:02;;;;;;;;;;;;;;;4.89;73.69;98622.31;4833302;29;20012;-66
2022/12/20 04:45:27;;;;;;;;;;;;;;;4.89;73.16;98619.72;4825589;29;19952;-65
2022/12/20 04:47:53;;;;;;;;;;;;;;;4.90;73.77;98616.22;4834788;29;19952;-66
2022/12/20 04:50:18;;;;;;;;;;;;;;;4.90;73.46;98604.97;4840014;29;20401;-66
2022/12/20 04:55:27;;;;;;;;;;;;;;;4.92;73.94;98593.63;4839502;29;19968;-66
2022/12/20 04:57:52;;;;;;;;;;;;;;;4.95;73.71;98587.41;4823695;29;20308;-65
2022/12/20 05:00:18;;;;;;;;;;;;;;;4.91;72.80;98584.09;4839147;29;20345;-65
2022/12/20 05:02:43;;;;;;;;;;;;;;;4.91;73.17;98597.09;4841561;29;20007;-65
2022/12/20 05:05:08;;;;;;;;;;;;;;;4.94;73.55;98591.78;4843475;29;19923;-66
2022/12/20 05:07:34;;;;;;;;;;;;;;;4.93;72.98;98600.50;4833005;29;19942;-66
2022/12/20 05:09:59;;;;;;;;;;;;;;;4.91;72.49;98597.09;4837187;29;19924;-66
2022/12/20 05:12:24;;;;;;;;;;;;;;;4.92;73.01;98591.00;4840062;29;19920;-65
2022/12/20 05:14:49;;;;;;;;;;;;;;;4.88;73.00;98596.38;4847704;29;19916;-65
2022/12/20 05:17:14;;;;;;;;;;;;;;;4.89;73.19;98600.69;4834301;29;19916;-65
2022/12/20 05:19:40;;;;;;;;;;;;;;;4.86;72.61;98593.00;4843802;29;20274;-65
2022/12/20 05:27:33;;;;;;;;;;;;;;;4.92;73.44;98567.63;4836763;29;19991;-65
2022/12/20 05:29:58;;;;;;;;;;;;;;;4.92;73.20;98565.03;4830789;29;19941;-65
2022/12/20 05:32:23;;;;;;;;;;;;;;;4.93;73.42;98569.31;4849304;29;19924;-66
2022/12/20 05:34:48;;;;;;;;;;;;;;;4.95;73.61;98564.88;4841885;29;19916;-66
2022/12/20 05:37:14;;;;;;;;;;;;;;;4.94;72.84;98555.38;4836203;29;19916;-66
2022/12/20 05:39:39;;;;;;;;;;;;;;;4.96;72.96;98563.13;4857715;29;20055;-65
2022/12/20 05:42:04;;;;;;;;;;;;;;;4.97;73.00;98576.06;4836780;29;20011;-66
2022/12/20 05:44:29;;;;;;;;;;;;;;;4.98;72.54;98567.34;4846557;29;20065;-65
2022/12/20 05:46:54;;;;;;;;;;;;;;;5.00;72.91;98575.09;4832972;29;20007;-66
2022/12/20 05:49:20;;;;;;;;;;;;;;;5.00;73.20;98568.16;4839249;29;20007;-66
2022/12/20 05:51:45;;;;;;;;;;;;;;;5.00;73.63;98570.75;4843521;29;19945;-66
2022/12/20 05:54:10;;;;;;;;;;;;;;;5.03;73.66;98574.16;4839368;29;19967;-65
2022/12/20 05:56:35;;;;;;;;;;;;;;;5.04;73.36;98575.81;4842448;29;19975;-66
2022/12/20 05:59:00;;;;;;;;;;;;;;;5.03;72.84;98574.97;4855391;29;19951;-65
2022/12/20 06:01:26;;;;;;;;;;;;;;;5.04;72.81;98568.88;4838902;29;19959;-65
2022/12/20 06:03:51;;;;;;;;;;;;;;;5.06;73.21;98574.88;4834674;29;19964;-65
2022/12/20 06:06:17;;;;;;;;;;;;;;;5.08;73.72;98569.59;4840686;29;19952;-65
2022/12/20 06:08:42;;;;;;;;;;;;;;;5.10;73.20;98576.44;4843847;29;19919;-66
2022/12/20 06:11:07;;;;;;;;;;;;;;;5.04;72.21;98570.63;4842307;29;19916;-66
2022/12/20 06:13:32;;;;;;;;;;;;;;;4.94;72.03;98565.78;4831146;29;19917;-67
2022/12/20 06:15:59;;;;;;;;;;;;;;;4.84;71.68;98569.66;4831572;29;19924;-66
2022/12/20 06:18:24;;;;;;;;;;;;;;;4.85;72.90;98560.97;4833873;29;20385;-67
2022/12/20 06:20:50;;;;;;;;;;;;;;;4.75;72.13;98555.28;4842878;29;19919;-67
2022/12/20 06:23:15;;;;;;;;;;;;;;;4.69;72.05;98559.88;4841529;29;19938;-66
2022/12/20 06:25:40;;;;;;;;;;;;;;;4.58;71.53;98573.28;4844091;29;19975;-66
2022/12/20 06:28:06;;;;;;;;;;;;;;;4.52;72.28;98579.56;4834893;29;19920;-66
2022/12/20 06:30:32;;;;;;;;;;;;;;;4.53;73.76;98563.06;4832810;29;20410;-67
2022/12/20 06:32:58;;;;;;;;;;;;;;;4.51;73.46;98557.09;4839104;29;19916;-66
2022/12/20 06:35:23;;;;;;;;;;;;;;;4.47;72.79;98568.50;4842626;29;19923;-68
2022/12/20 06:37:48;;;;;;;;;;;;;;;4.45;73.42;98577.25;4841175;29;19924;-66
2022/12/20 06:40:13;;;;;;;;;;;;;;;4.43;73.73;98579.91;4833874;29;19926;-66
2022/12/20 06:42:39;;;;;;;;;;;;;;;4.37;73.52;98585.34;4840120;29;19917;-66
2022/12/20 06:45:04;;;;;;;;;;;;;;;4.39;74.06;98588.72;4831948;29;19916;-66
2022/12/20 06:47:29;;;;;;;;;;;;;;;4.38;73.21;98602.59;4842793;29;19964;-66
2022/12/20 06:49:55;;;;;;;;;;;;;;;4.46;74.53;98594.53;4841407;29;19935;-67
2022/12/20 06:52:20;;;;;;;;;;;;;;;4.44;73.56;98593.72;4835219;29;19936;-66
2022/12/20 06:54:45;;;;;;;;;;;;;;;4.44;72.92;98607.59;4827425;29;19917;-67
2022/12/20 06:57:10;;;;;;;;;;;;;;;4.41;73.25;98619.84;4840725;29;19923;-65
2022/12/20 06:59:35;;;;;;;;;;;;;;;4.40;73.06;98616.38;4832823;29;19928;-67
2022/12/20 07:02:01;;;;;;;;;;;;;;;4.44;73.22;98623.16;4835455;29;20400;-65
2022/12/20 07:04:26;;;;;;;;;;;;;;;4.49;74.02;98610.84;4836191;29;20428;-65
2022/12/20 07:06:51;;;;;;;;;;;;;;;4.59;74.59;98602.72;4847284;29;20481;-65
2022/12/20 07:09:16;;;;;;;;;;;;;;;4.61;74.12;98603.47;4840115;29;19923;-65
2022/12/20 07:11:42;;;;;;;;;;;;;;;4.67;73.74;98608.44;4840998;29;20365;-66
2022/12/20 07:14:07;;;;;;;;;;;;;;;4.71;74.08;98599.63;4834436;29;19957;-63
2022/12/20 07:16:32;;;;;;;;;;;;;;;4.78;74.29;98600.22;4849562;29;19923;-67
2022/12/20 07:18:57;;;;;;;;;;;;;;;4.89;74.57;98588.53;4838865;29;19981;-68
2022/12/20 07:21:23;;;;;;;;;;;;;;;4.98;74.08;98582.94;4827027;29;20297;-68
2022/12/20 07:23:48;;;;;;;;;;;;;;;5.03;74.02;98582.78;4837738;29;19967;-68
2022/12/20 07:26:13;;;;;;;;;;;;;;;4.83;68.59;98570.56;4836599;29;20319;-69
2022/12/20 07:28:38;;;;;;;;;;;;;;;4.50;67.79;98575.31;4855440;29;20281;-68
2022/12/20 07:31:04;;;;;;;;;;;;;;;4.20;68.64;98587.72;4836737;29;19920;-68
2022/12/20 07:33:30;;;;;;;;;;;;;;;3.88;69.45;98576.72;4823818;29;19920;-67
2022/12/20 07:36:05;;;;;;;;;;;;;;;3.68;70.66;98579.16;4840058;29;19922;-66
2022/12/20 07:38:30;;;;;;;;;;;;;;;3.47;71.20;98571.22;4826756;29;19920;-67
2022/12/20 07:40:56;;;;;;;;;;;;;;;3.32;71.90;98587.31;4849145;29;20002;-68
2022/12/20 07:43:21;;;;;;;;;;;;;;;3.20;72.50;98583.38;4837003;29;20007;-64
2022/12/20 07:45:46;;;;;;;;;;;;;;;3.12;72.82;98584.53;4833820;29;19920;-67
2022/12/20 07:48:12;;;;;;;;;;;;;;;2.99;73.46;98571.94;4837140;29;19916;-65
2022/12/20 07:50:37;;;;;;;;;;;;;;;2.95;73.33;98566.91;4840250;29;20176;-66
2022/12/20 07:53:03;;;;;;;;;;;;;;;2.88;73.62;98576.63;4842030;29;19917;-67
2022/12/20 07:55:30;;;;;;;;;;;;;;;2.82;74.23;98571.63;4836059;29;19939;-66
2022/12/20 07:57:56;;;;;;;;;;;;;;;2.80;73.80;98578.63;4829673;29;19916;-67
2022/12/20 08:00:21;;;;;;;;;;;;;;;2.75;74.49;98571.00;4830907;29;20321;-63
2022/12/20 08:02:54;;;;;;;;;;;;;;;2.73;74.63;98565.00;4823524;29;19917;-64
2022/12/20 08:05:20;;;;;;;;;;;;;;;2.74;75.26;98560.69;4835382;29;19968;-66
2022/12/20 08:07:45;;;;;;;;;;;;;;;2.70;75.00;98556.50;4840943;29;20011;-63
2022/12/20 08:10:11;;;;;;;;;;;;;;;2.69;74.65;98557.41;4832208;29;19999;-64
2022/12/20 08:12:37;;;;;;;;;;;;;;;2.68;74.81;98559.13;4845440;29;19919;-64
2022/12/20 08:15:02;;;;;;;;;;;;;;;2.67;75.31;98551.41;4839559;29;20373;-64
2022/12/20 08:17:27;;;;;;;;;;;;;;;2.67;74.87;98552.25;4833948;29;19966;-65
2022/12/20 08:19:53;;;;;;;;;;;;;;;2.68;74.92;98560.88;4837227;29;20003;-63
2022/12/20 08:22:18;;;;;;;;;;;;;;;2.68;75.26;98540.97;4840565;29;20429;-64
2022/12/20 08:24:43;;;;;;;;;;;;;;;2.70;75.12;98539.22;4835240;29;20140;-65
2022/12/20 08:27:09;;;;;;;;;;;;;;;2.69;74.88;98534.09;4833326;29;19916;-66
2022/12/20 08:29:34;;;;;;;;;;;;;;;2.70;75.40;98540.94;4836771;29;19927;-65
2022/12/20 08:31:59;;;;;;;;;;;;;;;2.74;75.59;98547.72;4837432;29;20406;-66
2022/12/20 08:34:25;;;;;;;;;;;;;;;2.75;74.83;98533.88;4824677;29;20364;-64
2022/12/20 08:36:50;;;;;;;;;;;;;;;2.75;75.52;98526.09;4838199;29;19924;-65
2022/12/20 08:39:15;;;;;;;;;;;;;;;2.77;75.51;98526.91;4839417;29;19928;-66
2022/12/20 08:41:40;;;;;;;;;;;;;;;2.76;75.18;98525.22;4827671;29;19917;-64
2022/12/20 08:44:06;;;;;;;;;;;;;;;2.79;75.36;98530.31;4834205;29;19916;-64
2022/12/20 08:46:31;;;;;;;;;;;;;;;2.79;74.80;98525.13;4837225;29;19921;-65
2022/12/20 08:48:56;;;;;;;;;;;;;;;2.83;75.36;98526.72;4838692;29;19964;-64
2022/12/20 08:51:21;;;;;;;;;;;;;;;2.87;75.22;98522.28;4839076;29;19916;-65
2022/12/20 08:53:46;;;;;;;;;;;;;;;2.87;74.83;98523.13;4842871;29;19964;-65
2022/12/20 08:56:12;;;;;;;;;;;;;;;2.90;75.00;98517.84;4851483;29;19920;-64
2022/12/20 08:58:38;;;;;;;;;;;;;;;2.92;75.34;98526.41;4837107;29;20339;-67
2022/12/20 09:01:03;;;;;;;;;;;;;;;2.92;74.87;98531.59;4844318;29;19916;-64
2022/12/20 09:03:29;;;;;;;;;;;;;;;2.97;75.46;98521.09;4842638;29;19924;-65
2022/12/20 09:05:54;;;;;;;;;;;;;;;2.99;75.15;98520.13;4850699;29;19920;-65
2022/12/20 09:08:19;;;;;;;;;;;;;;;3.02;74.89;98521.78;4838423;29;19913;-66
2022/12/20 09:10:44;;;;;;;;;;;;;;;3.04;75.34;98513.06;4843445;29;19960;-66
2022/12/20 09:13:10;;;;;;;;;;;;;;;3.07;75.22;98510.38;4842256;29;20289;-66
2022/12/20 09:15:35;;;;;;;;;;;;;;;3.11;75.19;98512.84;4846180;29;19920;-66
2022/12/20 09:18:00;;;;;;;;;;;;;;;3.13;75.15;98513.63;4845333;29;19924;-64
2022/12/20 09:20:26;;;;;;;;;;;;;;;3.15;75.22;98517.03;4840374;29;19916;-65
2022/12/20 09:22:51;;;;;;;;;;;;;;;3.15;75.05;98527.41;4842398;29;19939;-63
2022/12/20 09:25:16;;;;;;;;;;;;;;;3.18;74.88;98533.31;4842203;29;19916;-66
2022/12/20 09:27:41;;;;;;;;;;;;;;;3.19;74.94;98524.66;4836081;29;20027;-65
2022/12/20 09:30:07;;;;;;;;;;;;;;;3.19;74.85;98521.22;4838377;29;20011;-67
2022/12/20 09:32:32;;;;;;;;;;;;;;;3.19;75.20;98526.41;4833640;29;19999;-66
2022/12/20 09:34:57;;;;;;;;;;;;;;;3.21;74.96;98516.84;4834214;29;19922;-65
2022/12/20 09:37:23;;;;;;;;;;;;;;;3.22;75.08;98521.13;4845480;29;19923;-65
2022/12/20 09:39:49;;;;;;;;;;;;;;;3.23;75.04;98525.38;4855940;29;19923;-65
2022/12/20 09:42:15;;;;;;;;;;;;;;;3.27;75.08;98514.03;4831132;29;19920;-65
2022/12/20 09:44:40;;;;;;;;;;;;;;;3.27;75.11;98506.25;4834825;29;20301;-65
2022/12/20 09:47:16;;;;;;;;;;;;;;;3.28;75.16;98510.53;4838568;29;19924;-64
2022/12/20 09:49:42;;;;;;;;;;;;;;;3.28;74.74;98503.59;4856964;29;19973;-64
2022/12/20 09:52:14;;;;;;;;;;;;;;;3.29;75.28;98507.03;4842487;29;20353;-64
2022/12/20 09:54:51;;;;;;;;;;;;;;;3.29;74.58;98501.84;4828257;29;19946;-63
2022/12/20 09:57:23;;;;;;;;;;;;;;;3.29;74.84;98489.72;4846033;29;19916;-65
2022/12/20 09:59:48;;;;;;;;;;;;;;;3.29;75.46;98489.72;4849070;29;19969;-65
2022/12/20 10:02:14;;;;;;;;;;;;;;;3.29;75.30;98484.53;4837955;29;19920;-65
2022/12/20 10:04:40;;;;;;;;;;;;;;;3.27;74.96;98475.16;4840041;29;19916;-64
2022/12/20 10:07:23;;;;;;;;;;;;;;;3.27;75.34;98467.38;4841219;29;20490;-65
2022/12/20 10:10:07;;;;;;;;;;;;;;;3.27;75.28;98464.78;4840958;29;19920;-65
2022/12/20 10:12:32;;;;;;;;;;;;;;;3.29;75.12;98465.56;4835779;29;20369;-65
2022/12/20 10:15:16;;;;;;;;;;;;;;;3.29;75.50;98463.81;4843385;29;19929;-65
2022/12/20 10:17:44;;;;;;;;;;;;;;;3.32;75.02;98455.09;4840347;29;19920;-65
2022/12/20 10:20:13;;;;;;;;;;;;;;;3.36;74.98;98451.47;4840691;29;19924;-65
2022/12/20 10:22:43;;;;;;;;;;;;;;;3.40;75.14;98450.47;4841682;29;19917;-64
2022/12/20 10:25:12;;;;;;;;;;;;;;;3.43;74.68;98434.78;4835989;29;19916;-64
2022/12/20 10:27:41;;;;;;;;;;;;;;;3.47;75.14;98431.19;4838305;29;19916;-63
2022/12/20 10:30:25;;;;;;;;;;;;;;;3.51;74.70;98431.91;4843558;29;19917;-64
2022/12/20 10:32:51;;;;;;;;;;;;;;;3.57;74.78;98442.91;4838583;29;19936;-64
2022/12/20 10:35:27;;;;;;;;;;;;;;;3.61;74.19;98422.91;4843036;29;19912;-64
2022/12/20 10:37:56;;;;;;;;;;;;;;;3.69;74.01;98426.06;4840208;29;19975;-65
2022/12/20 10:40:26;;;;;;;;;;;;;;;3.72;73.93;98427.72;4841428;29;19916;-64
2022/12/20 10:42:51;;;;;;;;;;;;;;;3.76;73.59;98411.13;4840247;29;20369;-64
2022/12/20 10:45:16;;;;;;;;;;;;;;;3.77;73.83;98405.88;4836098;29;19945;-64
2022/12/20 10:47:42;;;;;;;;;;;;;;;3.78;73.69;98404.94;4843373;29;20015;-63
2022/12/20 10:50:08;;;;;;;;;;;;;;;3.80;73.35;98412.69;4843346;29;19912;-64
2022/12/20 10:52:33;;;;;;;;;;;;;;;3.83;73.47;98407.41;4842556;29;19920;-64
2022/12/20 10:54:58;;;;;;;;;;;;;;;3.86;73.53;98412.47;4836326;29;19916;-65
2022/12/20 10:57:24;;;;;;;;;;;;;;;3.90;73.58;98414.03;4835785;29;19920;-65
2022/12/20 10:59:50;;;;;;;;;;;;;;;3.94;73.29;98404.38;4847662;29;20056;-65
2022/12/20 11:02:25;;;;;;;;;;;;;;;3.97;73.87;98399.91;4840805;29;19916;-65
2022/12/20 11:05:19;;;;;;;;;;;;;;;3.98;73.71;98411.13;4835259;29;20218;-65
2022/12/20 11:07:55;;;;;;;;;;;;;;;3.99;73.43;98407.63;4835353;29;19920;-64
2022/12/20 11:10:22;;;;;;;;;;;;;;;4.04;73.91;98411.75;4828454;29;19912;-65
2022/12/20 11:12:54;;;;;;;;;;;;;;;4.10;73.50;98399.44;4814034;29;20397;-65
2022/12/20 11:15:21;;;;;;;;;;;;;;;4.18;73.06;98387.84;4835947;29;20381;-65
2022/12/20 11:17:49;;;;;;;;;;;;;;;4.24;73.20;98382.41;4842636;29;20388;-65
2022/12/20 11:20:33;;;;;;;;;;;;;;;4.29;73.15;98374.44;4837917;29;20413;-65
2022/12/20 11:23:17;;;;;;;;;;;;;;;4.33;72.79;98370.78;4841085;29;19920;-65
2022/12/20 11:26:01;;;;;;;;;;;;;;;4.34;72.87;98372.50;4831789;29;19920;-65
2022/12/20 11:28:35;;;;;;;;;;;;;;;4.34;73.41;98388.09;4841478;29;19999;-65
2022/12/20 11:31:04;;;;;;;;;;;;;;;4.33;73.22;98386.38;4832966;29;19941;-65
2022/12/20 11:33:29;;;;;;;;;;;;;;;4.32;73.32;98397.69;4845041;29;19926;-65
2022/12/20 11:35:58;;;;;;;;;;;;;;;4.34;72.98;98401.06;4834520;29;20006;-65
2022/12/20 11:38:23;;;;;;;;;;;;;;;4.37;73.25;98390.56;4833870;29;19927;-65
2022/12/20 11:40:48;;;;;;;;;;;;;;;4.39;73.17;98385.28;4842175;29;19912;-65
2022/12/20 11:43:21;;;;;;;;;;;;;;;4.39;73.15;98380.94;4840859;29;19913;-65
2022/12/20 11:46:05;;;;;;;;;;;;;;;4.38;73.13;98374.06;4846005;29;20003;-65
2022/12/20 11:48:46;;;;;;;;;;;;;;;4.37;73.16;98367.19;4839277;29;19912;-65
2022/12/20 11:51:11;;;;;;;;;;;;;;;4.35;73.26;98348.22;4840891;29;20360;-65
2022/12/20 11:53:37;;;;;;;;;;;;;;;4.33;73.31;98355.22;4833840;29;20011;-65
2022/12/20 11:56:08;;;;;;;;;;;;;;;4.31;73.56;98341.47;4838928;29;19924;-66
2022/12/20 11:58:54;;;;;;;;;;;;;;;4.31;74.18;98341.47;4838478;29;19928;-66
2022/12/20 12:01:39;;;;;;;;;;;;;;;4.29;73.81;98345.88;4845203;29;20007;-66
2022/12/20 12:04:07;;;;;;;;;;;;;;;4.29;73.55;98343.28;4839712;29;19936;-64
2022/12/20 12:06:34;;;;;;;;;;;;;;;4.29;73.43;98335.47;4838854;29;20623;-64
2022/12/20 12:09:07;;;;;;;;;;;;;;;4.33;73.85;98331.00;4838082;29;19917;-64
2022/12/20 12:11:34;;;;;;;;;;;;;;;4.38;73.97;98335.09;4840428;29;19956;-64
2022/12/20 12:13:59;;;;;;;;;;;;;;;4.43;73.50;98324.53;4829958;29;20348;-64
2022/12/20 12:16:26;;;;;;;;;;;;;;;4.49;73.63;98334.66;4830799;29;20385;-64
2022/12/20 12:18:51;;;;;;;;;;;;;;;4.57;73.44;98313.56;4837954;29;19981;-63
2022/12/20 12:21:23;;;;;;;;;;;;;;;4.64;73.25;98307.19;4837878;29;20011;-62
2022/12/20 12:23:58;;;;;;;;;;;;;;;4.69;73.11;98294.84;4838451;29;19913;-63
2022/12/20 12:26:27;;;;;;;;;;;;;;;4.74;73.11;98304.13;4827776;29;19924;-63
2022/12/20 12:28:53;;;;;;;;;;;;;;;4.77;73.24;98300.53;4854985;29;19916;-63
2022/12/20 12:31:21;;;;;;;;;;;;;;;4.82;72.76;98309.00;4847341;29;19990;-63
2022/12/20 12:33:47;;;;;;;;;;;;;;;4.86;72.66;98307.94;4847193;29;19920;-66
2022/12/20 12:36:19;;;;;;;;;;;;;;;4.89;72.57;98309.56;4822849;29;20014;-66
2022/12/20 12:39:02;;;;;;;;;;;;;;;4.93;72.64;98304.16;4834669;29;20018;-64
2022/12/20 12:41:46;;;;;;;;;;;;;;;4.95;72.63;98307.53;4832212;29;20330;-64
2022/12/20 12:44:17;;;;;;;;;;;;;;;4.97;72.43;98310.91;4835745;29;19923;-62
2022/12/20 12:46:43;;;;;;;;;;;;;;;4.99;72.23;98319.50;4838830;29;19912;-63
2022/12/20 12:49:14;;;;;;;;;;;;;;;4.96;72.15;98298.84;4837765;29;19927;-64
2022/12/20 12:51:40;;;;;;;;;;;;;;;4.96;72.16;98285.84;4833231;29;20274;-63
2022/12/20 12:54:08;;;;;;;;;;;;;;;4.98;72.46;98275.38;4836851;29;19924;-63
2022/12/20 12:56:46;;;;;;;;;;;;;;;4.96;72.25;98259.84;4834282;29;19924;-63
2022/12/20 12:59:11;;;;;;;;;;;;;;;4.96;72.32;98252.03;4837657;29;19929;-63
2022/12/20 13:01:49;;;;;;;;;;;;;;;4.94;72.40;98248.66;4838032;29;19920;-63
2022/12/20 13:04:21;;;;;;;;;;;;;;;4.93;72.27;98252.19;4829806;29;19923;-63
2022/12/20 13:06:46;;;;;;;;;;;;;;;4.92;72.55;98260.91;4837686;29;19923;-64
2022/12/20 13:09:41;;;;;;;;;;;;;;;4.91;72.20;98269.59;4822603;29;19913;-64